<?xml version="1.0" encoding="UTF-8" standalone="no" ?>
<gpx xmlns="http://www.topografix.com/GPX/1/1" xmlns:xsi="http://www.w3.org/2001/XMLSchema-instance" xsi:schemaLocation="http://www.topografix.com/GPX/1/1 http://www.topografix.com/GPX/1/1/gpx.xsd" version="1.1" creator="VisuGPX - https://www.visugpx.com">
  <metadata>
    <name>VESE Ecole VTT</name>
    <desc><![CDATA[Sortie du Samedi 25 mai 2013 école VTT de Saverne]]></desc>
  </metadata>
  <trk>
    <name><![CDATA[GPS-ADi2013/05/25_14:09]]></name>
    <trkseg>
      <trkpt lat="48.73143" lon="7.35211">
        <ele>224.861389</ele>
        <time>2013-05-25T12:09:05Z</time>
      </trkpt>
      <trkpt lat="48.73145" lon="7.35232">
        <ele>266.097778</ele>
        <time>2013-05-25T12:09:18Z</time>
      </trkpt>
      <trkpt lat="48.73143" lon="7.35214">
        <ele>228.584045</ele>
        <time>2013-05-25T12:09:39Z</time>
      </trkpt>
      <trkpt lat="48.73126" lon="7.35224">
        <ele>230.681702</ele>
        <time>2013-05-25T12:13:36Z</time>
      </trkpt>
      <trkpt lat="48.73142" lon="7.35217">
        <ele>242.169983</ele>
        <time>2013-05-25T12:13:42Z</time>
      </trkpt>
      <trkpt lat="48.73155" lon="7.35196">
        <ele>248.72467</ele>
        <time>2013-05-25T12:13:51Z</time>
      </trkpt>
      <trkpt lat="48.73173" lon="7.35143">
        <ele>247.947327</ele>
        <time>2013-05-25T12:14:04Z</time>
      </trkpt>
      <trkpt lat="48.73188" lon="7.35128">
        <ele>247.771545</ele>
        <time>2013-05-25T12:14:12Z</time>
      </trkpt>
      <trkpt lat="48.73209" lon="7.35134">
        <ele>247.955139</ele>
        <time>2013-05-25T12:14:21Z</time>
      </trkpt>
      <trkpt lat="48.73224" lon="7.35116">
        <ele>249.740295</ele>
        <time>2013-05-25T12:14:31Z</time>
      </trkpt>
      <trkpt lat="48.73272" lon="7.34962">
        <ele>246.095764</ele>
        <time>2013-05-25T12:15:28Z</time>
      </trkpt>
      <trkpt lat="48.73284" lon="7.34939">
        <ele>246.892639</ele>
        <time>2013-05-25T12:15:37Z</time>
      </trkpt>
      <trkpt lat="48.73314" lon="7.34908">
        <ele>256.027466</ele>
        <time>2013-05-25T12:15:57Z</time>
      </trkpt>
      <trkpt lat="48.73336" lon="7.34863">
        <ele>257.199341</ele>
        <time>2013-05-25T12:16:19Z</time>
      </trkpt>
      <trkpt lat="48.73343" lon="7.34834">
        <ele>255.763733</ele>
        <time>2013-05-25T12:16:28Z</time>
      </trkpt>
      <trkpt lat="48.73355" lon="7.34816">
        <ele>261.082153</ele>
        <time>2013-05-25T12:16:53Z</time>
      </trkpt>
      <trkpt lat="48.73349" lon="7.34764">
        <ele>270.199341</ele>
        <time>2013-05-25T12:18:43Z</time>
      </trkpt>
      <trkpt lat="48.7331" lon="7.34704">
        <ele>272.754028</ele>
        <time>2013-05-25T12:19:09Z</time>
      </trkpt>
      <trkpt lat="48.73257" lon="7.34588">
        <ele>304.793091</ele>
        <time>2013-05-25T12:19:48Z</time>
      </trkpt>
      <trkpt lat="48.73073" lon="7.34332">
        <ele>335.160278</ele>
        <time>2013-05-25T12:21:33Z</time>
      </trkpt>
      <trkpt lat="48.7301" lon="7.34259">
        <ele>330.214966</ele>
        <time>2013-05-25T12:21:58Z</time>
      </trkpt>
      <trkpt lat="48.73" lon="7.34232">
        <ele>328.894653</ele>
        <time>2013-05-25T12:22:02Z</time>
      </trkpt>
      <trkpt lat="48.72891" lon="7.34075">
        <ele>311.652466</ele>
        <time>2013-05-25T12:22:55Z</time>
      </trkpt>
      <trkpt lat="48.72864" lon="7.33999">
        <ele>299.785278</ele>
        <time>2013-05-25T12:23:19Z</time>
      </trkpt>
      <trkpt lat="48.72851" lon="7.3398">
        <ele>297.058716</ele>
        <time>2013-05-25T12:23:24Z</time>
      </trkpt>
      <trkpt lat="48.72781" lon="7.33747">
        <ele>315.136841</ele>
        <time>2013-05-25T12:26:08Z</time>
      </trkpt>
      <trkpt lat="48.72727" lon="7.3366">
        <ele>321.996216</ele>
        <time>2013-05-25T12:26:33Z</time>
      </trkpt>
      <trkpt lat="48.72636" lon="7.33542">
        <ele>344.636841</ele>
        <time>2013-05-25T12:27:04Z</time>
      </trkpt>
      <trkpt lat="48.72514" lon="7.3345">
        <ele>349.363403</ele>
        <time>2013-05-25T12:27:43Z</time>
      </trkpt>
      <trkpt lat="48.72466" lon="7.33402">
        <ele>357.574341</ele>
        <time>2013-05-25T12:28:01Z</time>
      </trkpt>
      <trkpt lat="48.7243" lon="7.3338">
        <ele>363.129028</ele>
        <time>2013-05-25T12:28:15Z</time>
      </trkpt>
      <trkpt lat="48.72381" lon="7.33319">
        <ele>372.785278</ele>
        <time>2013-05-25T12:28:36Z</time>
      </trkpt>
      <trkpt lat="48.72317" lon="7.3326">
        <ele>361.629028</ele>
        <time>2013-05-25T12:29:06Z</time>
      </trkpt>
      <trkpt lat="48.72259" lon="7.33253">
        <ele>362.613403</ele>
        <time>2013-05-25T12:29:30Z</time>
      </trkpt>
      <trkpt lat="48.72194" lon="7.33205">
        <ele>365.113403</ele>
        <time>2013-05-25T12:31:08Z</time>
      </trkpt>
      <trkpt lat="48.72121" lon="7.33179">
        <ele>366.300903</ele>
        <time>2013-05-25T12:32:47Z</time>
      </trkpt>
      <trkpt lat="48.7211" lon="7.33156">
        <ele>367.879028</ele>
        <time>2013-05-25T12:33:09Z</time>
      </trkpt>
      <trkpt lat="48.72102" lon="7.33101">
        <ele>373.425903</ele>
        <time>2013-05-25T12:33:41Z</time>
      </trkpt>
      <trkpt lat="48.72096" lon="7.33009">
        <ele>374.543091</ele>
        <time>2013-05-25T12:34:22Z</time>
      </trkpt>
      <trkpt lat="48.7208" lon="7.33022">
        <ele>369.988403</ele>
        <time>2013-05-25T12:35:06Z</time>
      </trkpt>
      <trkpt lat="48.72081" lon="7.33051">
        <ele>372.839966</ele>
        <time>2013-05-25T12:35:19Z</time>
      </trkpt>
      <trkpt lat="48.72061" lon="7.33095">
        <ele>379.050903</ele>
        <time>2013-05-25T12:35:44Z</time>
      </trkpt>
      <trkpt lat="48.72061" lon="7.33258">
        <ele>395.441528</ele>
        <time>2013-05-25T12:39:15Z</time>
      </trkpt>
      <trkpt lat="48.72064" lon="7.33284">
        <ele>402.457153</ele>
        <time>2013-05-25T12:39:37Z</time>
      </trkpt>
      <trkpt lat="48.72106" lon="7.33407">
        <ele>425.847778</ele>
        <time>2013-05-25T12:40:51Z</time>
      </trkpt>
      <trkpt lat="48.72119" lon="7.33425">
        <ele>433.121216</ele>
        <time>2013-05-25T12:41:07Z</time>
      </trkpt>
      <trkpt lat="48.72149" lon="7.33496">
        <ele>441.066528</ele>
        <time>2013-05-25T12:41:58Z</time>
      </trkpt>
      <trkpt lat="48.72146" lon="7.33553">
        <ele>434.589966</ele>
        <time>2013-05-25T12:42:27Z</time>
      </trkpt>
      <trkpt lat="48.72134" lon="7.33573">
        <ele>437.621216</ele>
        <time>2013-05-25T12:45:43Z</time>
      </trkpt>
      <trkpt lat="48.72112" lon="7.33529">
        <ele>441.605591</ele>
        <time>2013-05-25T12:54:03Z</time>
      </trkpt>
      <trkpt lat="48.72095" lon="7.33516">
        <ele>442.050903</ele>
        <time>2013-05-25T12:54:15Z</time>
      </trkpt>
      <trkpt lat="48.72057" lon="7.33506">
        <ele>446.511841</ele>
        <time>2013-05-25T12:54:32Z</time>
      </trkpt>
      <trkpt lat="48.72017" lon="7.33449">
        <ele>444.402466</ele>
        <time>2013-05-25T12:55:06Z</time>
      </trkpt>
      <trkpt lat="48.72001" lon="7.33435">
        <ele>444.675903</ele>
        <time>2013-05-25T12:55:19Z</time>
      </trkpt>
      <trkpt lat="48.71963" lon="7.33415">
        <ele>446.863403</ele>
        <time>2013-05-25T12:55:39Z</time>
      </trkpt>
      <trkpt lat="48.71925" lon="7.33411">
        <ele>448.355591</ele>
        <time>2013-05-25T12:55:48Z</time>
      </trkpt>
      <trkpt lat="48.71887" lon="7.33392">
        <ele>446.113403</ele>
        <time>2013-05-25T12:55:56Z</time>
      </trkpt>
      <trkpt lat="48.71798" lon="7.33312">
        <ele>445.535278</ele>
        <time>2013-05-25T12:56:20Z</time>
      </trkpt>
      <trkpt lat="48.71768" lon="7.33273">
        <ele>442.175903</ele>
        <time>2013-05-25T12:56:30Z</time>
      </trkpt>
      <trkpt lat="48.71716" lon="7.33237">
        <ele>440.285278</ele>
        <time>2013-05-25T12:56:45Z</time>
      </trkpt>
      <trkpt lat="48.71676" lon="7.33221">
        <ele>443.402466</ele>
        <time>2013-05-25T12:56:53Z</time>
      </trkpt>
      <trkpt lat="48.71644" lon="7.33183">
        <ele>447.933716</ele>
        <time>2013-05-25T12:57:02Z</time>
      </trkpt>
      <trkpt lat="48.71545" lon="7.33113">
        <ele>456.660278</ele>
        <time>2013-05-25T12:57:29Z</time>
      </trkpt>
      <trkpt lat="48.71486" lon="7.331">
        <ele>461.183716</ele>
        <time>2013-05-25T12:57:44Z</time>
      </trkpt>
      <trkpt lat="48.71448" lon="7.33105">
        <ele>464.074341</ele>
        <time>2013-05-25T12:57:54Z</time>
      </trkpt>
      <trkpt lat="48.71384" lon="7.33096">
        <ele>462.214966</ele>
        <time>2013-05-25T12:58:04Z</time>
      </trkpt>
      <trkpt lat="48.71359" lon="7.33101">
        <ele>463.847778</ele>
        <time>2013-05-25T12:58:07Z</time>
      </trkpt>
      <trkpt lat="48.71323" lon="7.33116">
        <ele>453.113403</ele>
        <time>2013-05-25T12:58:15Z</time>
      </trkpt>
      <trkpt lat="48.71284" lon="7.33118">
        <ele>444.363403</ele>
        <time>2013-05-25T12:58:25Z</time>
      </trkpt>
      <trkpt lat="48.71267" lon="7.33136">
        <ele>437.347778</ele>
        <time>2013-05-25T12:58:30Z</time>
      </trkpt>
      <trkpt lat="48.71191" lon="7.3317">
        <ele>438.855591</ele>
        <time>2013-05-25T12:58:44Z</time>
      </trkpt>
      <trkpt lat="48.71153" lon="7.33172">
        <ele>436.339966</ele>
        <time>2013-05-25T12:59:46Z</time>
      </trkpt>
      <trkpt lat="48.71103" lon="7.33212">
        <ele>437.824341</ele>
        <time>2013-05-25T13:00:11Z</time>
      </trkpt>
      <trkpt lat="48.71043" lon="7.33225">
        <ele>434.097778</ele>
        <time>2013-05-25T13:00:32Z</time>
      </trkpt>
      <trkpt lat="48.71007" lon="7.33208">
        <ele>432.199341</ele>
        <time>2013-05-25T13:00:44Z</time>
      </trkpt>
      <trkpt lat="48.70987" lon="7.33209">
        <ele>432.714966</ele>
        <time>2013-05-25T13:00:49Z</time>
      </trkpt>
      <trkpt lat="48.70892" lon="7.33177">
        <ele>435.871216</ele>
        <time>2013-05-25T13:01:18Z</time>
      </trkpt>
      <trkpt lat="48.70821" lon="7.33136">
        <ele>435.355591</ele>
        <time>2013-05-25T13:01:47Z</time>
      </trkpt>
      <trkpt lat="48.7074" lon="7.33057">
        <ele>436.902466</ele>
        <time>2013-05-25T13:02:17Z</time>
      </trkpt>
      <trkpt lat="48.7071" lon="7.33016">
        <ele>435.863403</ele>
        <time>2013-05-25T13:02:31Z</time>
      </trkpt>
      <trkpt lat="48.7066" lon="7.32974">
        <ele>438.019653</ele>
        <time>2013-05-25T13:02:50Z</time>
      </trkpt>
      <trkpt lat="48.70642" lon="7.32965">
        <ele>437.691528</ele>
        <time>2013-05-25T13:02:58Z</time>
      </trkpt>
      <trkpt lat="48.70607" lon="7.3296">
        <ele>441.386841</ele>
        <time>2013-05-25T13:03:36Z</time>
      </trkpt>
      <trkpt lat="48.70591" lon="7.32945">
        <ele>439.636841</ele>
        <time>2013-05-25T13:03:43Z</time>
      </trkpt>
      <trkpt lat="48.70531" lon="7.32927">
        <ele>434.597778</ele>
        <time>2013-05-25T13:04:00Z</time>
      </trkpt>
      <trkpt lat="48.70437" lon="7.32884">
        <ele>426.488403</ele>
        <time>2013-05-25T13:04:38Z</time>
      </trkpt>
      <trkpt lat="48.70414" lon="7.32885">
        <ele>427.621216</ele>
        <time>2013-05-25T13:04:43Z</time>
      </trkpt>
      <trkpt lat="48.70378" lon="7.32865">
        <ele>418.707153</ele>
        <time>2013-05-25T13:04:52Z</time>
      </trkpt>
      <trkpt lat="48.70316" lon="7.32873">
        <ele>416.683716</ele>
        <time>2013-05-25T13:05:03Z</time>
      </trkpt>
      <trkpt lat="48.70299" lon="7.32856">
        <ele>402.308716</ele>
        <time>2013-05-25T13:05:05Z</time>
      </trkpt>
      <trkpt lat="48.702" lon="7.32882">
        <ele>401.996216</ele>
        <time>2013-05-25T13:05:22Z</time>
      </trkpt>
      <trkpt lat="48.70154" lon="7.32887">
        <ele>400.066528</ele>
        <time>2013-05-25T13:05:28Z</time>
      </trkpt>
      <trkpt lat="48.70081" lon="7.32928">
        <ele>401.004028</ele>
        <time>2013-05-25T13:05:37Z</time>
      </trkpt>
      <trkpt lat="48.70042" lon="7.32937">
        <ele>398.918091</ele>
        <time>2013-05-25T13:05:46Z</time>
      </trkpt>
      <trkpt lat="48.7" lon="7.32965">
        <ele>398.839966</ele>
        <time>2013-05-25T13:05:50Z</time>
      </trkpt>
      <trkpt lat="48.69983" lon="7.32962">
        <ele>390.808716</ele>
        <time>2013-05-25T13:05:53Z</time>
      </trkpt>
      <trkpt lat="48.69942" lon="7.32968">
        <ele>399.621216</ele>
        <time>2013-05-25T13:06:04Z</time>
      </trkpt>
      <trkpt lat="48.69877" lon="7.32949">
        <ele>397.324341</ele>
        <time>2013-05-25T13:06:16Z</time>
      </trkpt>
      <trkpt lat="48.69821" lon="7.32906">
        <ele>399.379028</ele>
        <time>2013-05-25T13:06:26Z</time>
      </trkpt>
      <trkpt lat="48.69745" lon="7.32806">
        <ele>408.082153</ele>
        <time>2013-05-25T13:06:45Z</time>
      </trkpt>
      <trkpt lat="48.69741" lon="7.32776">
        <ele>402.949341</ele>
        <time>2013-05-25T13:06:49Z</time>
      </trkpt>
      <trkpt lat="48.69715" lon="7.32732">
        <ele>416.714966</ele>
        <time>2013-05-25T13:06:57Z</time>
      </trkpt>
      <trkpt lat="48.69682" lon="7.32691">
        <ele>412.589966</ele>
        <time>2013-05-25T13:07:03Z</time>
      </trkpt>
      <trkpt lat="48.6965" lon="7.32666">
        <ele>408.410278</ele>
        <time>2013-05-25T13:07:09Z</time>
      </trkpt>
      <trkpt lat="48.69614" lon="7.32652">
        <ele>391.941528</ele>
        <time>2013-05-25T13:07:16Z</time>
      </trkpt>
      <trkpt lat="48.69603" lon="7.32635">
        <ele>379.152466</ele>
        <time>2013-05-25T13:09:17Z</time>
      </trkpt>
      <trkpt lat="48.6955" lon="7.32609">
        <ele>388.433716</ele>
        <time>2013-05-25T13:09:45Z</time>
      </trkpt>
      <trkpt lat="48.69511" lon="7.32599">
        <ele>393.558716</ele>
        <time>2013-05-25T13:10:04Z</time>
      </trkpt>
      <trkpt lat="48.69492" lon="7.32599">
        <ele>397.105591</ele>
        <time>2013-05-25T13:10:11Z</time>
      </trkpt>
      <trkpt lat="48.69475" lon="7.32612">
        <ele>400.910278</ele>
        <time>2013-05-25T13:10:23Z</time>
      </trkpt>
      <trkpt lat="48.69421" lon="7.3263">
        <ele>406.644653</ele>
        <time>2013-05-25T13:10:47Z</time>
      </trkpt>
      <trkpt lat="48.69344" lon="7.32622">
        <ele>412.699341</ele>
        <time>2013-05-25T13:11:30Z</time>
      </trkpt>
      <trkpt lat="48.69308" lon="7.32607">
        <ele>416.199341</ele>
        <time>2013-05-25T13:11:52Z</time>
      </trkpt>
      <trkpt lat="48.69228" lon="7.32529">
        <ele>427.504028</ele>
        <time>2013-05-25T13:12:44Z</time>
      </trkpt>
      <trkpt lat="48.69126" lon="7.32368">
        <ele>430.027466</ele>
        <time>2013-05-25T13:14:13Z</time>
      </trkpt>
      <trkpt lat="48.68951" lon="7.32196">
        <ele>434.847778</ele>
        <time>2013-05-25T13:16:04Z</time>
      </trkpt>
      <trkpt lat="48.68913" lon="7.32133">
        <ele>433.129028</ele>
        <time>2013-05-25T13:16:35Z</time>
      </trkpt>
      <trkpt lat="48.68879" lon="7.32106">
        <ele>437.199341</ele>
        <time>2013-05-25T13:16:54Z</time>
      </trkpt>
      <trkpt lat="48.68776" lon="7.31983">
        <ele>465.871216</ele>
        <time>2013-05-25T13:18:03Z</time>
      </trkpt>
      <trkpt lat="48.68693" lon="7.31829">
        <ele>488.316528</ele>
        <time>2013-05-25T13:19:14Z</time>
      </trkpt>
      <trkpt lat="48.68655" lon="7.31728">
        <ele>497.863403</ele>
        <time>2013-05-25T13:19:53Z</time>
      </trkpt>
      <trkpt lat="48.68629" lon="7.31689">
        <ele>501.246216</ele>
        <time>2013-05-25T13:20:11Z</time>
      </trkpt>
      <trkpt lat="48.68613" lon="7.31638">
        <ele>507.277466</ele>
        <time>2013-05-25T13:20:30Z</time>
      </trkpt>
      <trkpt lat="48.68595" lon="7.31633">
        <ele>509.988403</ele>
        <time>2013-05-25T13:20:43Z</time>
      </trkpt>
      <trkpt lat="48.68581" lon="7.31616">
        <ele>508.386841</ele>
        <time>2013-05-25T13:23:07Z</time>
      </trkpt>
      <trkpt lat="48.68589" lon="7.31592">
        <ele>504.105591</ele>
        <time>2013-05-25T13:24:52Z</time>
      </trkpt>
      <trkpt lat="48.68587" lon="7.31567">
        <ele>493.683716</ele>
        <time>2013-05-25T13:29:16Z</time>
      </trkpt>
      <trkpt lat="48.68572" lon="7.31552">
        <ele>493.035278</ele>
        <time>2013-05-25T13:29:22Z</time>
      </trkpt>
      <trkpt lat="48.68441" lon="7.3149">
        <ele>491.183716</ele>
        <time>2013-05-25T13:30:20Z</time>
      </trkpt>
      <trkpt lat="48.68315" lon="7.31408">
        <ele>516.461182</ele>
        <time>2013-05-25T13:31:07Z</time>
      </trkpt>
      <trkpt lat="48.68265" lon="7.31359">
        <ele>515.492432</ele>
        <time>2013-05-25T13:31:24Z</time>
      </trkpt>
      <trkpt lat="48.68255" lon="7.31338">
        <ele>509.566528</ele>
        <time>2013-05-25T13:31:28Z</time>
      </trkpt>
      <trkpt lat="48.68219" lon="7.31308">
        <ele>505.136841</ele>
        <time>2013-05-25T13:31:41Z</time>
      </trkpt>
      <trkpt lat="48.68168" lon="7.31218">
        <ele>501.879028</ele>
        <time>2013-05-25T13:32:03Z</time>
      </trkpt>
      <trkpt lat="48.68149" lon="7.31199">
        <ele>503.074341</ele>
        <time>2013-05-25T13:32:09Z</time>
      </trkpt>
      <trkpt lat="48.68151" lon="7.31172">
        <ele>506.113403</ele>
        <time>2013-05-25T13:32:31Z</time>
      </trkpt>
      <trkpt lat="48.68118" lon="7.31158">
        <ele>496.379028</ele>
        <time>2013-05-25T13:34:31Z</time>
      </trkpt>
      <trkpt lat="48.6808" lon="7.31163">
        <ele>501.152466</ele>
        <time>2013-05-25T13:34:51Z</time>
      </trkpt>
      <trkpt lat="48.68061" lon="7.31152">
        <ele>502.824341</ele>
        <time>2013-05-25T13:35:04Z</time>
      </trkpt>
      <trkpt lat="48.68046" lon="7.31134">
        <ele>504.824341</ele>
        <time>2013-05-25T13:35:13Z</time>
      </trkpt>
      <trkpt lat="48.68042" lon="7.31108">
        <ele>512.648682</ele>
        <time>2013-05-25T13:35:26Z</time>
      </trkpt>
      <trkpt lat="48.68005" lon="7.31088">
        <ele>520.898682</ele>
        <time>2013-05-25T13:35:50Z</time>
      </trkpt>
      <trkpt lat="48.67972" lon="7.31058">
        <ele>518.945557</ele>
        <time>2013-05-25T13:36:05Z</time>
      </trkpt>
      <trkpt lat="48.6796" lon="7.31038">
        <ele>516.211182</ele>
        <time>2013-05-25T13:36:15Z</time>
      </trkpt>
      <trkpt lat="48.67954" lon="7.30954">
        <ele>524.867432</ele>
        <time>2013-05-25T13:36:47Z</time>
      </trkpt>
      <trkpt lat="48.67966" lon="7.3087">
        <ele>529.304932</ele>
        <time>2013-05-25T13:37:10Z</time>
      </trkpt>
      <trkpt lat="48.67962" lon="7.30812">
        <ele>532.304932</ele>
        <time>2013-05-25T13:37:26Z</time>
      </trkpt>
      <trkpt lat="48.67949" lon="7.3076">
        <ele>532.867432</ele>
        <time>2013-05-25T13:37:43Z</time>
      </trkpt>
      <trkpt lat="48.67951" lon="7.30732">
        <ele>535.929932</ele>
        <time>2013-05-25T13:37:52Z</time>
      </trkpt>
      <trkpt lat="48.67941" lon="7.30707">
        <ele>535.273682</ele>
        <time>2013-05-25T13:38:08Z</time>
      </trkpt>
      <trkpt lat="48.67926" lon="7.30688">
        <ele>535.414307</ele>
        <time>2013-05-25T13:38:18Z</time>
      </trkpt>
      <trkpt lat="48.67922" lon="7.30605">
        <ele>531.586182</ele>
        <time>2013-05-25T13:38:42Z</time>
      </trkpt>
      <trkpt lat="48.6786" lon="7.30427">
        <ele>535.820557</ele>
        <time>2013-05-25T13:39:57Z</time>
      </trkpt>
      <trkpt lat="48.67836" lon="7.30384">
        <ele>538.148682</ele>
        <time>2013-05-25T13:40:16Z</time>
      </trkpt>
      <trkpt lat="48.67759" lon="7.30305">
        <ele>540.820557</ele>
        <time>2013-05-25T13:41:06Z</time>
      </trkpt>
      <trkpt lat="48.67709" lon="7.30271">
        <ele>549.789307</ele>
        <time>2013-05-25T13:41:46Z</time>
      </trkpt>
      <trkpt lat="48.67656" lon="7.30189">
        <ele>553.164307</ele>
        <time>2013-05-25T13:42:24Z</time>
      </trkpt>
      <trkpt lat="48.67595" lon="7.30042">
        <ele>558.492432</ele>
        <time>2013-05-25T13:43:12Z</time>
      </trkpt>
      <trkpt lat="48.67548" lon="7.29962">
        <ele>573.539307</ele>
        <time>2013-05-25T13:43:50Z</time>
      </trkpt>
      <trkpt lat="48.67544" lon="7.29936">
        <ele>578.617432</ele>
        <time>2013-05-25T13:43:57Z</time>
      </trkpt>
      <trkpt lat="48.67506" lon="7.29872">
        <ele>585.508057</ele>
        <time>2013-05-25T13:44:22Z</time>
      </trkpt>
      <trkpt lat="48.67499" lon="7.29847">
        <ele>589.648682</ele>
        <time>2013-05-25T13:44:30Z</time>
      </trkpt>
      <trkpt lat="48.67457" lon="7.29784">
        <ele>585.289307</ele>
        <time>2013-05-25T13:44:57Z</time>
      </trkpt>
      <trkpt lat="48.67427" lon="7.29754">
        <ele>588.054932</ele>
        <time>2013-05-25T13:45:19Z</time>
      </trkpt>
      <trkpt lat="48.6742" lon="7.29733">
        <ele>576.320557</ele>
        <time>2013-05-25T13:46:19Z</time>
      </trkpt>
      <trkpt lat="48.6743" lon="7.29653">
        <ele>586.398682</ele>
        <time>2013-05-25T13:48:54Z</time>
      </trkpt>
      <trkpt lat="48.6745" lon="7.29574">
        <ele>598.101807</ele>
        <time>2013-05-25T13:49:41Z</time>
      </trkpt>
      <trkpt lat="48.6747" lon="7.29529">
        <ele>605.711182</ele>
        <time>2013-05-25T13:50:08Z</time>
      </trkpt>
      <trkpt lat="48.67479" lon="7.29475">
        <ele>611.117432</ele>
        <time>2013-05-25T13:50:33Z</time>
      </trkpt>
      <trkpt lat="48.67461" lon="7.29464">
        <ele>609.414307</ele>
        <time>2013-05-25T13:52:30Z</time>
      </trkpt>
      <trkpt lat="48.67445" lon="7.29478">
        <ele>608.664307</ele>
        <time>2013-05-25T13:53:31Z</time>
      </trkpt>
      <trkpt lat="48.67441" lon="7.2945">
        <ele>609.226807</ele>
        <time>2013-05-25T13:54:33Z</time>
      </trkpt>
      <trkpt lat="48.67383" lon="7.29391">
        <ele>631.773682</ele>
        <time>2013-05-25T13:56:27Z</time>
      </trkpt>
      <trkpt lat="48.67365" lon="7.29387">
        <ele>631.914307</ele>
        <time>2013-05-25T13:56:33Z</time>
      </trkpt>
      <trkpt lat="48.6735" lon="7.29366">
        <ele>633.336182</ele>
        <time>2013-05-25T13:56:44Z</time>
      </trkpt>
      <trkpt lat="48.67332" lon="7.29353">
        <ele>636.351807</ele>
        <time>2013-05-25T13:56:52Z</time>
      </trkpt>
      <trkpt lat="48.67225" lon="7.29242">
        <ele>631.179932</ele>
        <time>2013-05-25T13:57:46Z</time>
      </trkpt>
      <trkpt lat="48.67189" lon="7.29175">
        <ele>631.883057</ele>
        <time>2013-05-25T13:58:32Z</time>
      </trkpt>
      <trkpt lat="48.67157" lon="7.29157">
        <ele>619.179932</ele>
        <time>2013-05-25T13:59:12Z</time>
      </trkpt>
      <trkpt lat="48.67172" lon="7.29175">
        <ele>618.804932</ele>
        <time>2013-05-25T14:03:06Z</time>
      </trkpt>
      <trkpt lat="48.67195" lon="7.29223">
        <ele>617.929932</ele>
        <time>2013-05-25T14:03:19Z</time>
      </trkpt>
      <trkpt lat="48.67189" lon="7.29249">
        <ele>615.398682</ele>
        <time>2013-05-25T14:03:52Z</time>
      </trkpt>
      <trkpt lat="48.67177" lon="7.29226">
        <ele>611.633057</ele>
        <time>2013-05-25T14:04:01Z</time>
      </trkpt>
      <trkpt lat="48.6717" lon="7.29256">
        <ele>609.179932</ele>
        <time>2013-05-25T14:04:12Z</time>
      </trkpt>
      <trkpt lat="48.67138" lon="7.29224">
        <ele>605.117432</ele>
        <time>2013-05-25T14:04:40Z</time>
      </trkpt>
      <trkpt lat="48.67107" lon="7.29148">
        <ele>603.273682</ele>
        <time>2013-05-25T14:05:05Z</time>
      </trkpt>
      <trkpt lat="48.67107" lon="7.29111">
        <ele>601.461182</ele>
        <time>2013-05-25T14:05:08Z</time>
      </trkpt>
      <trkpt lat="48.67094" lon="7.29103">
        <ele>600.836182</ele>
        <time>2013-05-25T14:05:16Z</time>
      </trkpt>
      <trkpt lat="48.67078" lon="7.29127">
        <ele>596.679932</ele>
        <time>2013-05-25T14:05:23Z</time>
      </trkpt>
      <trkpt lat="48.67063" lon="7.29126">
        <ele>589.648682</ele>
        <time>2013-05-25T14:05:35Z</time>
      </trkpt>
      <trkpt lat="48.67054" lon="7.29088">
        <ele>586.773682</ele>
        <time>2013-05-25T14:05:43Z</time>
      </trkpt>
      <trkpt lat="48.6706" lon="7.28991">
        <ele>571.179932</ele>
        <time>2013-05-25T14:06:02Z</time>
      </trkpt>
      <trkpt lat="48.67026" lon="7.28979">
        <ele>561.304932</ele>
        <time>2013-05-25T14:06:19Z</time>
      </trkpt>
      <trkpt lat="48.66945" lon="7.2891">
        <ele>547.726807</ele>
        <time>2013-05-25T14:07:05Z</time>
      </trkpt>
      <trkpt lat="48.66916" lon="7.28872">
        <ele>546.758057</ele>
        <time>2013-05-25T14:07:13Z</time>
      </trkpt>
      <trkpt lat="48.669" lon="7.28883">
        <ele>546.023682</ele>
        <time>2013-05-25T14:10:44Z</time>
      </trkpt>
      <trkpt lat="48.669" lon="7.28858">
        <ele>536.445557</ele>
        <time>2013-05-25T14:19:42Z</time>
      </trkpt>
      <trkpt lat="48.66909" lon="7.28833">
        <ele>532.711182</ele>
        <time>2013-05-25T14:19:56Z</time>
      </trkpt>
      <trkpt lat="48.66941" lon="7.28795">
        <ele>536.304932</ele>
        <time>2013-05-25T14:20:04Z</time>
      </trkpt>
      <trkpt lat="48.66977" lon="7.28778">
        <ele>541.570557</ele>
        <time>2013-05-25T14:20:09Z</time>
      </trkpt>
      <trkpt lat="48.66997" lon="7.28776">
        <ele>546.086182</ele>
        <time>2013-05-25T14:20:13Z</time>
      </trkpt>
      <trkpt lat="48.67036" lon="7.2875">
        <ele>551.554932</ele>
        <time>2013-05-25T14:20:23Z</time>
      </trkpt>
      <trkpt lat="48.67055" lon="7.28748">
        <ele>547.758057</ele>
        <time>2013-05-25T14:20:28Z</time>
      </trkpt>
      <trkpt lat="48.67152" lon="7.28773">
        <ele>541.789307</ele>
        <time>2013-05-25T14:20:58Z</time>
      </trkpt>
      <trkpt lat="48.67256" lon="7.28839">
        <ele>535.961182</ele>
        <time>2013-05-25T14:21:36Z</time>
      </trkpt>
      <trkpt lat="48.67292" lon="7.2885">
        <ele>535.976807</ele>
        <time>2013-05-25T14:21:47Z</time>
      </trkpt>
      <trkpt lat="48.67327" lon="7.28878">
        <ele>528.945557</ele>
        <time>2013-05-25T14:21:55Z</time>
      </trkpt>
      <trkpt lat="48.67405" lon="7.29007">
        <ele>521.633057</ele>
        <time>2013-05-25T14:22:29Z</time>
      </trkpt>
      <trkpt lat="48.67411" lon="7.29038">
        <ele>522.648682</ele>
        <time>2013-05-25T14:22:36Z</time>
      </trkpt>
      <trkpt lat="48.67425" lon="7.29057">
        <ele>528.117432</ele>
        <time>2013-05-25T14:22:44Z</time>
      </trkpt>
      <trkpt lat="48.67461" lon="7.29067">
        <ele>541.429932</ele>
        <time>2013-05-25T14:22:53Z</time>
      </trkpt>
      <trkpt lat="48.67539" lon="7.29065">
        <ele>557.883057</ele>
        <time>2013-05-25T14:23:19Z</time>
      </trkpt>
      <trkpt lat="48.67619" lon="7.29075">
        <ele>549.117432</ele>
        <time>2013-05-25T14:23:48Z</time>
      </trkpt>
      <trkpt lat="48.67636" lon="7.29086">
        <ele>541.242432</ele>
        <time>2013-05-25T14:23:52Z</time>
      </trkpt>
      <trkpt lat="48.67673" lon="7.29093">
        <ele>542.304932</ele>
        <time>2013-05-25T14:24:14Z</time>
      </trkpt>
      <trkpt lat="48.6774" lon="7.29144">
        <ele>535.367432</ele>
        <time>2013-05-25T14:25:35Z</time>
      </trkpt>
      <trkpt lat="48.67755" lon="7.29162">
        <ele>534.820557</ele>
        <time>2013-05-25T14:25:42Z</time>
      </trkpt>
      <trkpt lat="48.67779" lon="7.29213">
        <ele>538.586182</ele>
        <time>2013-05-25T14:25:54Z</time>
      </trkpt>
      <trkpt lat="48.67779" lon="7.29244">
        <ele>538.289307</ele>
        <time>2013-05-25T14:26:05Z</time>
      </trkpt>
      <trkpt lat="48.67724" lon="7.29391">
        <ele>520.289307</ele>
        <time>2013-05-25T14:27:40Z</time>
      </trkpt>
      <trkpt lat="48.67717" lon="7.29451">
        <ele>528.398682</ele>
        <time>2013-05-25T14:27:54Z</time>
      </trkpt>
      <trkpt lat="48.67697" lon="7.29497">
        <ele>536.617432</ele>
        <time>2013-05-25T14:28:05Z</time>
      </trkpt>
      <trkpt lat="48.67709" lon="7.29509">
        <ele>550.211182</ele>
        <time>2013-05-25T14:28:25Z</time>
      </trkpt>
      <trkpt lat="48.6771" lon="7.2954">
        <ele>549.867432</ele>
        <time>2013-05-25T14:31:59Z</time>
      </trkpt>
      <trkpt lat="48.6769" lon="7.29587">
        <ele>552.664307</ele>
        <time>2013-05-25T14:32:13Z</time>
      </trkpt>
      <trkpt lat="48.67682" lon="7.29646">
        <ele>564.336182</ele>
        <time>2013-05-25T14:32:29Z</time>
      </trkpt>
      <trkpt lat="48.67693" lon="7.29704">
        <ele>577.820557</ele>
        <time>2013-05-25T14:32:44Z</time>
      </trkpt>
      <trkpt lat="48.67734" lon="7.29763">
        <ele>595.195557</ele>
        <time>2013-05-25T14:33:02Z</time>
      </trkpt>
      <trkpt lat="48.67739" lon="7.29782">
        <ele>608.976807</ele>
        <time>2013-05-25T14:33:15Z</time>
      </trkpt>
      <trkpt lat="48.67774" lon="7.29825">
        <ele>618.101807</ele>
        <time>2013-05-25T14:33:26Z</time>
      </trkpt>
      <trkpt lat="48.67801" lon="7.29837">
        <ele>620.336182</ele>
        <time>2013-05-25T14:33:29Z</time>
      </trkpt>
      <trkpt lat="48.67815" lon="7.29858">
        <ele>622.758057</ele>
        <time>2013-05-25T14:33:33Z</time>
      </trkpt>
      <trkpt lat="48.67826" lon="7.29883">
        <ele>627.476807</ele>
        <time>2013-05-25T14:33:39Z</time>
      </trkpt>
      <trkpt lat="48.67842" lon="7.29977">
        <ele>632.554932</ele>
        <time>2013-05-25T14:33:50Z</time>
      </trkpt>
      <trkpt lat="48.67863" lon="7.30023">
        <ele>634.851807</ele>
        <time>2013-05-25T14:33:57Z</time>
      </trkpt>
      <trkpt lat="48.67895" lon="7.30069">
        <ele>638.414307</ele>
        <time>2013-05-25T14:34:17Z</time>
      </trkpt>
      <trkpt lat="48.67918" lon="7.30063">
        <ele>640.929932</ele>
        <time>2013-05-25T14:34:21Z</time>
      </trkpt>
      <trkpt lat="48.67931" lon="7.3004">
        <ele>643.929932</ele>
        <time>2013-05-25T14:34:25Z</time>
      </trkpt>
      <trkpt lat="48.67931" lon="7.30004">
        <ele>641.164307</ele>
        <time>2013-05-25T14:34:29Z</time>
      </trkpt>
      <trkpt lat="48.67918" lon="7.29987">
        <ele>630.445557</ele>
        <time>2013-05-25T14:34:32Z</time>
      </trkpt>
      <trkpt lat="48.679" lon="7.2998">
        <ele>623.320557</ele>
        <time>2013-05-25T14:34:35Z</time>
      </trkpt>
      <trkpt lat="48.67882" lon="7.29931">
        <ele>614.070557</ele>
        <time>2013-05-25T14:34:42Z</time>
      </trkpt>
      <trkpt lat="48.67887" lon="7.29905">
        <ele>608.133057</ele>
        <time>2013-05-25T14:34:46Z</time>
      </trkpt>
      <trkpt lat="48.679" lon="7.29884">
        <ele>600.664307</ele>
        <time>2013-05-25T14:34:52Z</time>
      </trkpt>
      <trkpt lat="48.67908" lon="7.29841">
        <ele>573.851807</ele>
        <time>2013-05-25T14:35:04Z</time>
      </trkpt>
      <trkpt lat="48.67921" lon="7.29838">
        <ele>559.320557</ele>
        <time>2013-05-25T14:35:16Z</time>
      </trkpt>
      <trkpt lat="48.67937" lon="7.29875">
        <ele>539.398682</ele>
        <time>2013-05-25T14:35:49Z</time>
      </trkpt>
      <trkpt lat="48.67989" lon="7.29955">
        <ele>541.086182</ele>
        <time>2013-05-25T14:36:54Z</time>
      </trkpt>
      <trkpt lat="48.67993" lon="7.29982">
        <ele>542.789307</ele>
        <time>2013-05-25T14:37:09Z</time>
      </trkpt>
      <trkpt lat="48.68017" lon="7.30028">
        <ele>544.836182</ele>
        <time>2013-05-25T14:37:30Z</time>
      </trkpt>
      <trkpt lat="48.68083" lon="7.30071">
        <ele>529.648682</ele>
        <time>2013-05-25T14:39:00Z</time>
      </trkpt>
      <trkpt lat="48.68103" lon="7.30153">
        <ele>528.867432</ele>
        <time>2013-05-25T14:39:20Z</time>
      </trkpt>
      <trkpt lat="48.68262" lon="7.30288">
        <ele>537.273682</ele>
        <time>2013-05-25T14:39:58Z</time>
      </trkpt>
      <trkpt lat="48.68303" lon="7.30309">
        <ele>541.554932</ele>
        <time>2013-05-25T14:40:13Z</time>
      </trkpt>
      <trkpt lat="48.6835" lon="7.30354">
        <ele>549.039307</ele>
        <time>2013-05-25T14:40:29Z</time>
      </trkpt>
      <trkpt lat="48.68364" lon="7.3038">
        <ele>550.945557</ele>
        <time>2013-05-25T14:40:34Z</time>
      </trkpt>
      <trkpt lat="48.68398" lon="7.3041">
        <ele>555.226807</ele>
        <time>2013-05-25T14:40:40Z</time>
      </trkpt>
      <trkpt lat="48.68433" lon="7.30439">
        <ele>551.742432</ele>
        <time>2013-05-25T14:40:48Z</time>
      </trkpt>
      <trkpt lat="48.68471" lon="7.30457">
        <ele>544.367432</ele>
        <time>2013-05-25T14:40:55Z</time>
      </trkpt>
      <trkpt lat="48.68523" lon="7.30499">
        <ele>542.633057</ele>
        <time>2013-05-25T14:41:26Z</time>
      </trkpt>
      <trkpt lat="48.6856" lon="7.30512">
        <ele>544.336182</ele>
        <time>2013-05-25T14:41:35Z</time>
      </trkpt>
      <trkpt lat="48.68633" lon="7.30554">
        <ele>548.445557</ele>
        <time>2013-05-25T14:41:51Z</time>
      </trkpt>
      <trkpt lat="48.68751" lon="7.30591">
        <ele>532.851807</ele>
        <time>2013-05-25T14:42:22Z</time>
      </trkpt>
      <trkpt lat="48.6877" lon="7.30582">
        <ele>531.789307</ele>
        <time>2013-05-25T14:42:25Z</time>
      </trkpt>
      <trkpt lat="48.68812" lon="7.30596">
        <ele>526.445557</ele>
        <time>2013-05-25T14:42:30Z</time>
      </trkpt>
      <trkpt lat="48.6883" lon="7.3059">
        <ele>530.133057</ele>
        <time>2013-05-25T14:42:32Z</time>
      </trkpt>
      <trkpt lat="48.68854" lon="7.306">
        <ele>538.039307</ele>
        <time>2013-05-25T14:42:36Z</time>
      </trkpt>
      <trkpt lat="48.68958" lon="7.30608">
        <ele>542.367432</ele>
        <time>2013-05-25T14:42:49Z</time>
      </trkpt>
      <trkpt lat="48.68999" lon="7.30602">
        <ele>544.773682</ele>
        <time>2013-05-25T14:42:57Z</time>
      </trkpt>
      <trkpt lat="48.69041" lon="7.30537">
        <ele>549.836182</ele>
        <time>2013-05-25T14:43:13Z</time>
      </trkpt>
      <trkpt lat="48.69046" lon="7.30506">
        <ele>550.383057</ele>
        <time>2013-05-25T14:43:19Z</time>
      </trkpt>
      <trkpt lat="48.69088" lon="7.30447">
        <ele>534.211182</ele>
        <time>2013-05-25T14:43:36Z</time>
      </trkpt>
      <trkpt lat="48.69096" lon="7.30417">
        <ele>515.976807</ele>
        <time>2013-05-25T14:43:42Z</time>
      </trkpt>
      <trkpt lat="48.69142" lon="7.30389">
        <ele>491.308716</ele>
        <time>2013-05-25T14:44:00Z</time>
      </trkpt>
      <trkpt lat="48.69181" lon="7.30384">
        <ele>485.097778</ele>
        <time>2013-05-25T14:44:16Z</time>
      </trkpt>
      <trkpt lat="48.69216" lon="7.30403">
        <ele>483.550903</ele>
        <time>2013-05-25T14:44:33Z</time>
      </trkpt>
      <trkpt lat="48.69249" lon="7.30441">
        <ele>488.722778</ele>
        <time>2013-05-25T14:44:45Z</time>
      </trkpt>
      <trkpt lat="48.69285" lon="7.30458">
        <ele>487.168091</ele>
        <time>2013-05-25T14:44:53Z</time>
      </trkpt>
      <trkpt lat="48.69395" lon="7.30571">
        <ele>467.418091</ele>
        <time>2013-05-25T14:45:28Z</time>
      </trkpt>
      <trkpt lat="48.69446" lon="7.306">
        <ele>457.238403</ele>
        <time>2013-05-25T14:46:04Z</time>
      </trkpt>
      <trkpt lat="48.69466" lon="7.30603">
        <ele>450.910278</ele>
        <time>2013-05-25T14:46:09Z</time>
      </trkpt>
      <trkpt lat="48.69476" lon="7.30626">
        <ele>445.121216</ele>
        <time>2013-05-25T14:46:23Z</time>
      </trkpt>
      <trkpt lat="48.69524" lon="7.30645">
        <ele>420.136841</ele>
        <time>2013-05-25T14:46:53Z</time>
      </trkpt>
      <trkpt lat="48.69598" lon="7.30686">
        <ele>415.550903</ele>
        <time>2013-05-25T14:47:20Z</time>
      </trkpt>
      <trkpt lat="48.69651" lon="7.30747">
        <ele>429.089966</ele>
        <time>2013-05-25T14:47:34Z</time>
      </trkpt>
      <trkpt lat="48.69737" lon="7.30818">
        <ele>434.261841</ele>
        <time>2013-05-25T14:47:54Z</time>
      </trkpt>
      <trkpt lat="48.69773" lon="7.30837">
        <ele>434.933716</ele>
        <time>2013-05-25T14:48:37Z</time>
      </trkpt>
      <trkpt lat="48.69804" lon="7.30875">
        <ele>430.535278</ele>
        <time>2013-05-25T14:48:55Z</time>
      </trkpt>
      <trkpt lat="48.6991" lon="7.30911">
        <ele>431.746216</ele>
        <time>2013-05-25T14:49:10Z</time>
      </trkpt>
      <trkpt lat="48.6997" lon="7.30919">
        <ele>424.379028</ele>
        <time>2013-05-25T14:49:21Z</time>
      </trkpt>
      <trkpt lat="48.70024" lon="7.30935">
        <ele>413.191528</ele>
        <time>2013-05-25T14:50:12Z</time>
      </trkpt>
      <trkpt lat="48.70082" lon="7.30932">
        <ele>396.918091</ele>
        <time>2013-05-25T14:50:24Z</time>
      </trkpt>
      <trkpt lat="48.701" lon="7.30921">
        <ele>389.910278</ele>
        <time>2013-05-25T14:50:29Z</time>
      </trkpt>
      <trkpt lat="48.70133" lon="7.30927">
        <ele>374.300903</ele>
        <time>2013-05-25T14:50:42Z</time>
      </trkpt>
      <trkpt lat="48.70162" lon="7.3097">
        <ele>368.660278</ele>
        <time>2013-05-25T14:50:52Z</time>
      </trkpt>
      <trkpt lat="48.70182" lon="7.3098">
        <ele>366.238403</ele>
        <time>2013-05-25T14:50:58Z</time>
      </trkpt>
      <trkpt lat="48.7026" lon="7.30991">
        <ele>361.769653</ele>
        <time>2013-05-25T14:51:25Z</time>
      </trkpt>
      <trkpt lat="48.70297" lon="7.3099">
        <ele>352.746216</ele>
        <time>2013-05-25T14:51:41Z</time>
      </trkpt>
      <trkpt lat="48.70391" lon="7.3103">
        <ele>357.238403</ele>
        <time>2013-05-25T14:52:29Z</time>
      </trkpt>
      <trkpt lat="48.70429" lon="7.31094">
        <ele>365.761841</ele>
        <time>2013-05-25T14:52:52Z</time>
      </trkpt>
      <trkpt lat="48.70446" lon="7.31103">
        <ele>368.754028</ele>
        <time>2013-05-25T14:52:59Z</time>
      </trkpt>
      <trkpt lat="48.70485" lon="7.31095">
        <ele>367.371216</ele>
        <time>2013-05-25T14:53:17Z</time>
      </trkpt>
      <trkpt lat="48.705" lon="7.31081">
        <ele>360.894653</ele>
        <time>2013-05-25T14:53:29Z</time>
      </trkpt>
      <trkpt lat="48.70519" lon="7.3108">
        <ele>357.293091</ele>
        <time>2013-05-25T14:53:38Z</time>
      </trkpt>
      <trkpt lat="48.70537" lon="7.31088">
        <ele>361.957153</ele>
        <time>2013-05-25T14:54:58Z</time>
      </trkpt>
      <trkpt lat="48.70519" lon="7.31076">
        <ele>358.832153</ele>
        <time>2013-05-25T14:55:43Z</time>
      </trkpt>
      <trkpt lat="48.70572" lon="7.31099">
        <ele>334.722778</ele>
        <time>2013-05-25T14:59:36Z</time>
      </trkpt>
      <trkpt lat="48.70587" lon="7.31085">
        <ele>330.457153</ele>
        <time>2013-05-25T15:02:12Z</time>
      </trkpt>
      <trkpt lat="48.70602" lon="7.31098">
        <ele>329.527466</ele>
        <time>2013-05-25T15:06:17Z</time>
      </trkpt>
      <trkpt lat="48.70578" lon="7.31099">
        <ele>329.207153</ele>
        <time>2013-05-25T15:08:29Z</time>
      </trkpt>
      <trkpt lat="48.70613" lon="7.31069">
        <ele>332.050903</ele>
        <time>2013-05-25T15:08:54Z</time>
      </trkpt>
      <trkpt lat="48.7067" lon="7.31036">
        <ele>327.113403</ele>
        <time>2013-05-25T15:09:07Z</time>
      </trkpt>
      <trkpt lat="48.70742" lon="7.30969">
        <ele>324.879028</ele>
        <time>2013-05-25T15:09:21Z</time>
      </trkpt>
      <trkpt lat="48.70779" lon="7.30949">
        <ele>325.082153</ele>
        <time>2013-05-25T15:09:30Z</time>
      </trkpt>
      <trkpt lat="48.70802" lon="7.3095">
        <ele>325.480591</ele>
        <time>2013-05-25T15:09:33Z</time>
      </trkpt>
      <trkpt lat="48.70877" lon="7.309">
        <ele>329.668091</ele>
        <time>2013-05-25T15:09:47Z</time>
      </trkpt>
      <trkpt lat="48.70937" lon="7.30875">
        <ele>334.285278</ele>
        <time>2013-05-25T15:09:58Z</time>
      </trkpt>
      <trkpt lat="48.70936" lon="7.30843">
        <ele>336.808716</ele>
        <time>2013-05-25T15:10:14Z</time>
      </trkpt>
      <trkpt lat="48.70955" lon="7.30842">
        <ele>334.675903</ele>
        <time>2013-05-25T15:10:22Z</time>
      </trkpt>
      <trkpt lat="48.71032" lon="7.30811">
        <ele>332.019653</ele>
        <time>2013-05-25T15:10:45Z</time>
      </trkpt>
      <trkpt lat="48.7113" lon="7.30857">
        <ele>325.996216</ele>
        <time>2013-05-25T15:11:02Z</time>
      </trkpt>
      <trkpt lat="48.71169" lon="7.30869">
        <ele>327.136841</ele>
        <time>2013-05-25T15:11:10Z</time>
      </trkpt>
      <trkpt lat="48.7121" lon="7.30902">
        <ele>327.683716</ele>
        <time>2013-05-25T15:11:17Z</time>
      </trkpt>
      <trkpt lat="48.71286" lon="7.3097">
        <ele>329.050903</ele>
        <time>2013-05-25T15:11:34Z</time>
      </trkpt>
      <trkpt lat="48.71368" lon="7.31086">
        <ele>330.824341</ele>
        <time>2013-05-25T15:11:52Z</time>
      </trkpt>
      <trkpt lat="48.71402" lon="7.31121">
        <ele>332.347778</ele>
        <time>2013-05-25T15:11:59Z</time>
      </trkpt>
      <trkpt lat="48.7144" lon="7.31144">
        <ele>338.332153</ele>
        <time>2013-05-25T15:12:09Z</time>
      </trkpt>
      <trkpt lat="48.71482" lon="7.31154">
        <ele>342.589966</ele>
        <time>2013-05-25T15:12:18Z</time>
      </trkpt>
      <trkpt lat="48.71644" lon="7.31354">
        <ele>359.191528</ele>
        <time>2013-05-25T15:12:54Z</time>
      </trkpt>
      <trkpt lat="48.71685" lon="7.31374">
        <ele>358.699341</ele>
        <time>2013-05-25T15:12:58Z</time>
      </trkpt>
      <trkpt lat="48.71735" lon="7.3144">
        <ele>362.816528</ele>
        <time>2013-05-25T15:13:10Z</time>
      </trkpt>
      <trkpt lat="48.71753" lon="7.31444">
        <ele>361.043091</ele>
        <time>2013-05-25T15:13:13Z</time>
      </trkpt>
      <trkpt lat="48.71767" lon="7.31463">
        <ele>363.121216</ele>
        <time>2013-05-25T15:13:20Z</time>
      </trkpt>
      <trkpt lat="48.71806" lon="7.31463">
        <ele>369.277466</ele>
        <time>2013-05-25T15:13:32Z</time>
      </trkpt>
      <trkpt lat="48.71785" lon="7.3147">
        <ele>373.097778</ele>
        <time>2013-05-25T15:13:35Z</time>
      </trkpt>
      <trkpt lat="48.71799" lon="7.31454">
        <ele>375.355591</ele>
        <time>2013-05-25T15:13:40Z</time>
      </trkpt>
      <trkpt lat="48.71835" lon="7.31452">
        <ele>351.269653</ele>
        <time>2013-05-25T15:13:48Z</time>
      </trkpt>
      <trkpt lat="48.71868" lon="7.31427">
        <ele>342.839966</ele>
        <time>2013-05-25T15:14:03Z</time>
      </trkpt>
      <trkpt lat="48.71942" lon="7.31426">
        <ele>316.222778</ele>
        <time>2013-05-25T15:14:28Z</time>
      </trkpt>
      <trkpt lat="48.71971" lon="7.31462">
        <ele>304.597778</ele>
        <time>2013-05-25T15:14:37Z</time>
      </trkpt>
      <trkpt lat="48.71986" lon="7.31468">
        <ele>294.652466</ele>
        <time>2013-05-25T15:14:42Z</time>
      </trkpt>
      <trkpt lat="48.72011" lon="7.31509">
        <ele>288.402466</ele>
        <time>2013-05-25T15:14:52Z</time>
      </trkpt>
      <trkpt lat="48.7202" lon="7.31565">
        <ele>282.644653</ele>
        <time>2013-05-25T15:15:09Z</time>
      </trkpt>
      <trkpt lat="48.72046" lon="7.31639">
        <ele>278.035278</ele>
        <time>2013-05-25T15:15:29Z</time>
      </trkpt>
      <trkpt lat="48.72052" lon="7.31694">
        <ele>279.316528</ele>
        <time>2013-05-25T15:15:47Z</time>
      </trkpt>
      <trkpt lat="48.72142" lon="7.31856">
        <ele>287.214966</ele>
        <time>2013-05-25T15:16:21Z</time>
      </trkpt>
      <trkpt lat="48.72145" lon="7.31886">
        <ele>287.371216</ele>
        <time>2013-05-25T15:16:26Z</time>
      </trkpt>
      <trkpt lat="48.72145" lon="7.31915">
        <ele>289.379028</ele>
        <time>2013-05-25T15:16:31Z</time>
      </trkpt>
      <trkpt lat="48.72111" lon="7.31956">
        <ele>291.769653</ele>
        <time>2013-05-25T15:16:38Z</time>
      </trkpt>
      <trkpt lat="48.72025" lon="7.32007">
        <ele>302.722778</ele>
        <time>2013-05-25T15:16:53Z</time>
      </trkpt>
      <trkpt lat="48.72042" lon="7.3201">
        <ele>312.066528</ele>
        <time>2013-05-25T15:17:03Z</time>
      </trkpt>
      <trkpt lat="48.72075" lon="7.32032">
        <ele>314.714966</ele>
        <time>2013-05-25T15:17:39Z</time>
      </trkpt>
      <trkpt lat="48.72091" lon="7.32023">
        <ele>305.097778</ele>
        <time>2013-05-25T15:17:52Z</time>
      </trkpt>
      <trkpt lat="48.72104" lon="7.32027">
        <ele>291.574341</ele>
        <time>2013-05-25T15:18:21Z</time>
      </trkpt>
      <trkpt lat="48.72137" lon="7.3205">
        <ele>278.402466</ele>
        <time>2013-05-25T15:18:54Z</time>
      </trkpt>
      <trkpt lat="48.72166" lon="7.3209">
        <ele>263.183716</ele>
        <time>2013-05-25T15:19:35Z</time>
      </trkpt>
      <trkpt lat="48.72228" lon="7.32238">
        <ele>256.519653</ele>
        <time>2013-05-25T15:20:04Z</time>
      </trkpt>
      <trkpt lat="48.72254" lon="7.32325">
        <ele>259.269653</ele>
        <time>2013-05-25T15:20:20Z</time>
      </trkpt>
      <trkpt lat="48.72324" lon="7.3247">
        <ele>260.035278</ele>
        <time>2013-05-25T15:20:52Z</time>
      </trkpt>
      <trkpt lat="48.7233" lon="7.32497">
        <ele>262.980591</ele>
        <time>2013-05-25T15:20:59Z</time>
      </trkpt>
      <trkpt lat="48.72371" lon="7.32562">
        <ele>276.941528</ele>
        <time>2013-05-25T15:21:15Z</time>
      </trkpt>
      <trkpt lat="48.72388" lon="7.32612">
        <ele>274.933716</ele>
        <time>2013-05-25T15:21:26Z</time>
      </trkpt>
      <trkpt lat="48.72443" lon="7.3269">
        <ele>249.69342</ele>
        <time>2013-05-25T15:21:40Z</time>
      </trkpt>
      <trkpt lat="48.72487" lon="7.32796">
        <ele>248.896545</ele>
        <time>2013-05-25T15:21:56Z</time>
      </trkpt>
      <trkpt lat="48.7256" lon="7.32897">
        <ele>229.94342</ele>
        <time>2013-05-25T15:22:16Z</time>
      </trkpt>
      <trkpt lat="48.72578" lon="7.32952">
        <ele>225.94342</ele>
        <time>2013-05-25T15:22:24Z</time>
      </trkpt>
      <trkpt lat="48.72594" lon="7.331">
        <ele>228.584045</ele>
        <time>2013-05-25T15:22:54Z</time>
      </trkpt>
      <trkpt lat="48.72624" lon="7.33177">
        <ele>242.291077</ele>
        <time>2013-05-25T15:23:13Z</time>
      </trkpt>
      <trkpt lat="48.72766" lon="7.33364">
        <ele>286.207153</ele>
        <time>2013-05-25T15:24:26Z</time>
      </trkpt>
      <trkpt lat="48.72784" lon="7.33373">
        <ele>287.816528</ele>
        <time>2013-05-25T15:24:47Z</time>
      </trkpt>
      <trkpt lat="48.72811" lon="7.33412">
        <ele>280.043091</ele>
        <time>2013-05-25T15:25:17Z</time>
      </trkpt>
      <trkpt lat="48.72841" lon="7.33439">
        <ele>265.574341</ele>
        <time>2013-05-25T15:25:43Z</time>
      </trkpt>
      <trkpt lat="48.72889" lon="7.33479">
        <ele>270.433716</ele>
        <time>2013-05-25T15:26:31Z</time>
      </trkpt>
      <trkpt lat="48.72923" lon="7.33496">
        <ele>261.793091</ele>
        <time>2013-05-25T15:27:57Z</time>
      </trkpt>
      <trkpt lat="48.72948" lon="7.33536">
        <ele>249.732483</ele>
        <time>2013-05-25T15:28:23Z</time>
      </trkpt>
      <trkpt lat="48.72989" lon="7.33661">
        <ele>248.689514</ele>
        <time>2013-05-25T15:29:31Z</time>
      </trkpt>
      <trkpt lat="48.7299" lon="7.33688">
        <ele>249.587952</ele>
        <time>2013-05-25T15:29:44Z</time>
      </trkpt>
      <trkpt lat="48.72979" lon="7.33769">
        <ele>265.363403</ele>
        <time>2013-05-25T15:30:29Z</time>
      </trkpt>
      <trkpt lat="48.72967" lon="7.3382">
        <ele>267.316528</ele>
        <time>2013-05-25T15:30:54Z</time>
      </trkpt>
      <trkpt lat="48.72955" lon="7.33842">
        <ele>262.293091</ele>
        <time>2013-05-25T15:31:29Z</time>
      </trkpt>
      <trkpt lat="48.72953" lon="7.33897">
        <ele>261.402466</ele>
        <time>2013-05-25T15:33:15Z</time>
      </trkpt>
      <trkpt lat="48.72961" lon="7.33952">
        <ele>264.222778</ele>
        <time>2013-05-25T15:33:38Z</time>
      </trkpt>
      <trkpt lat="48.73003" lon="7.34107">
        <ele>279.769653</ele>
        <time>2013-05-25T15:34:57Z</time>
      </trkpt>
      <trkpt lat="48.73071" lon="7.34213">
        <ele>298.730591</ele>
        <time>2013-05-25T15:35:52Z</time>
      </trkpt>
      <trkpt lat="48.73144" lon="7.34312">
        <ele>306.574341</ele>
        <time>2013-05-25T15:36:35Z</time>
      </trkpt>
      <trkpt lat="48.7323" lon="7.34518">
        <ele>301.433716</ele>
        <time>2013-05-25T15:37:25Z</time>
      </trkpt>
      <trkpt lat="48.73263" lon="7.34616">
        <ele>291.441528</ele>
        <time>2013-05-25T15:39:40Z</time>
      </trkpt>
      <trkpt lat="48.73348" lon="7.34761">
        <ele>285.964966</ele>
        <time>2013-05-25T15:40:00Z</time>
      </trkpt>
      <trkpt lat="48.73357" lon="7.34788">
        <ele>283.222778</ele>
        <time>2013-05-25T15:40:03Z</time>
      </trkpt>
      <trkpt lat="48.73326" lon="7.34868">
        <ele>277.175903</ele>
        <time>2013-05-25T15:40:13Z</time>
      </trkpt>
      <trkpt lat="48.73275" lon="7.3494">
        <ele>270.769653</ele>
        <time>2013-05-25T15:40:23Z</time>
      </trkpt>
      <trkpt lat="48.73272" lon="7.34972">
        <ele>266.433716</ele>
        <time>2013-05-25T15:40:29Z</time>
      </trkpt>
      <trkpt lat="48.7322" lon="7.35111">
        <ele>258.066528</ele>
        <time>2013-05-25T15:40:46Z</time>
      </trkpt>
      <trkpt lat="48.73198" lon="7.35115">
        <ele>256.543091</ele>
        <time>2013-05-25T15:40:55Z</time>
      </trkpt>
      <trkpt lat="48.73179" lon="7.35109">
        <ele>254.959045</ele>
        <time>2013-05-25T15:41:00Z</time>
      </trkpt>
      <trkpt lat="48.73153" lon="7.35197">
        <ele>244.896545</ele>
        <time>2013-05-25T15:41:13Z</time>
      </trkpt>
      <trkpt lat="48.73141" lon="7.35217">
        <ele>246.197327</ele>
        <time>2013-05-25T15:44:48Z</time>
      </trkpt>
    </trkseg>
  </trk>
</gpx>